createdAt,value
2022-08-16T00:00:21.988Z,21.66
2022-08-16T00:01:13.826Z,21.63
2022-08-16T00:03:13.654Z,21.65
2022-08-16T00:04:09.657Z,21.62
2022-08-16T00:06:03.124Z,21.69
2022-08-16T00:07:03.106Z,21.74
2022-08-16T00:08:57.232Z,21.77
2022-08-16T00:09:57.335Z,21.75
2022-08-16T00:11:52.722Z,21.62
2022-08-16T00:12:51.313Z,21.65
2022-08-16T00:14:45.078Z,21.69
2022-08-16T00:15:51.081Z,21.74
2022-08-16T00:17:56.352Z,21.58
2022-08-16T00:18:39.139Z,21.63
2022-08-16T00:20:33.229Z,21.47
2022-08-16T00:21:33.219Z,21.56
2022-08-16T00:23:34.625Z,21.62
2022-08-16T00:24:31.180Z,21.53
2022-08-16T00:26:34.746Z,21.41
2022-08-16T00:27:21.447Z,21.43
2022-08-16T00:29:16.082Z,21.44
2022-08-16T00:30:19.631Z,21.48
2022-08-16T00:32:10.923Z,21.63
2022-08-16T00:33:09.666Z,21.69
2022-08-16T00:35:03.776Z,21.74
2022-08-16T00:36:03.769Z,21.81
2022-08-16T00:37:59.431Z,21.91
2022-08-16T00:38:57.848Z,21.81
2022-08-16T00:40:53.769Z,21.74
2022-08-16T00:41:52.945Z,21.82
2022-08-16T00:43:47.062Z,21.63
2022-08-16T00:44:47.051Z,21.62
2022-08-16T00:46:52.682Z,21.53
2022-08-16T00:47:42.700Z,21.51
2022-08-16T00:49:39.254Z,21.43
2022-08-16T00:50:36.816Z,21.48
2022-08-16T00:52:30.935Z,21.50
2022-08-16T00:53:30.693Z,21.45
2022-08-16T00:55:24.582Z,21.60
2022-08-16T00:56:56.601Z,21.53
2022-08-16T00:58:34.421Z,21.43
2022-08-16T00:59:18.456Z,21.47
2022-08-16T01:01:12.623Z,21.53
2022-08-16T01:02:31.169Z,21.51
2022-08-16T01:04:06.298Z,21.48
2022-08-16T01:05:10.699Z,21.53
2022-08-16T01:07:01.651Z,21.65
2022-08-16T01:08:00.540Z,21.66
2022-08-16T01:09:54.628Z,21.58
2022-08-16T01:10:54.617Z,21.65
2022-08-16T01:12:48.871Z,21.37
2022-08-16T01:13:48.714Z,21.37
2022-08-16T01:15:43.941Z,21.51
2022-08-16T01:16:43.792Z,21.47
2022-08-16T01:18:40.493Z,21.50
2022-08-16T01:19:37.550Z,21.58
2022-08-16T01:21:33.735Z,21.60
2022-08-16T01:22:49.523Z,21.55
2022-08-16T01:24:52.050Z,21.45
2022-08-16T01:25:33.916Z,21.43
2022-08-16T01:27:21.081Z,21.47
2022-08-16T01:28:21.068Z,21.44
2022-08-16T01:30:20.306Z,21.43
2022-08-16T01:31:15.233Z,21.56
2022-08-16T01:33:14.757Z,21.66
2022-08-16T01:34:09.374Z,21.59
2022-08-16T01:36:09.518Z,21.71
2022-08-16T01:37:03.607Z,21.74
2022-08-16T01:38:57.787Z,21.80
2022-08-16T01:39:57.802Z,21.71
2022-08-16T01:41:51.853Z,21.77
2022-08-16T01:42:53.867Z,21.67
2022-08-16T01:44:45.895Z,21.55
2022-08-16T01:45:45.887Z,21.48
2022-08-16T01:47:49.434Z,21.44
2022-08-16T01:48:39.985Z,21.37
2022-08-16T01:50:43.306Z,21.37
2022-08-16T01:51:35.178Z,21.29
2022-08-16T01:53:29.268Z,21.25
2022-08-16T01:54:31.187Z,21.13
2022-08-16T01:56:24.712Z,21.13
2022-08-16T01:57:23.348Z,21.13
2022-08-16T01:59:17.439Z,21.20
2022-08-16T02:00:19.210Z,21.13
2022-08-16T02:02:27.004Z,21.26
2022-08-16T02:03:12.738Z,21.20
2022-08-16T02:05:05.688Z,21.25
2022-08-16T02:06:07.912Z,21.29
2022-08-16T02:07:59.786Z,21.44
2022-08-16T02:08:59.768Z,21.37
2022-08-16T02:10:53.860Z,21.55
2022-08-16T02:11:53.853Z,21.65
2022-08-16T02:13:47.985Z,21.51
2022-08-16T02:14:47.970Z,21.66
2022-08-16T02:16:42.082Z,21.43
2022-08-16T02:17:42.059Z,21.38
2022-08-16T02:19:58.997Z,21.25
2022-08-16T02:20:36.386Z,21.23
2022-08-16T02:22:35.167Z,21.29
2022-08-16T02:23:30.494Z,21.23
2022-08-16T02:25:24.772Z,21.41
2022-08-16T02:26:24.766Z,21.41
2022-08-16T02:28:19.170Z,21.35
2022-08-16T02:29:18.825Z,21.23
2022-08-16T02:31:12.597Z,21.13
2022-08-16T02:32:49.065Z,21.05
2022-08-16T02:34:06.694Z,21.14
2022-08-16T02:35:06.690Z,21.16
2022-08-16T02:37:01.777Z,21.25
2022-08-16T02:38:08.528Z,21.35
2022-08-16T02:39:55.838Z,21.26
2022-08-16T02:40:55.799Z,21.14
2022-08-16T02:42:50.676Z,21.16
2022-08-16T02:43:50.057Z,21.14
2022-08-16T02:45:44.228Z,21.11
2022-08-16T02:46:49.800Z,21.08
2022-08-16T02:48:38.542Z,21.04
2022-08-16T02:49:58.923Z,21.03
2022-08-16T02:51:32.691Z,20.90
2022-08-16T02:52:32.686Z,20.95
2022-08-16T02:54:26.773Z,21.04
2022-08-16T02:55:40.646Z,21.05
2022-08-16T02:57:20.980Z,21.13
2022-08-16T02:58:25.225Z,21.05
2022-08-16T03:00:34.482Z,21.25
2022-08-16T03:01:24.559Z,21.25
2022-08-16T03:03:10.383Z,21.37
2022-08-16T03:04:30.216Z,21.25
2022-08-16T03:06:03.378Z,21.30
2022-08-16T03:07:04.351Z,21.32
2022-08-16T03:08:57.471Z,21.34
2022-08-16T03:10:00.180Z,21.34
2022-08-16T03:11:51.562Z,21.47
2022-08-16T03:12:55.052Z,21.43
2022-08-16T03:14:46.777Z,21.38
2022-08-16T03:15:46.759Z,21.44
2022-08-16T03:17:53.090Z,21.47
2022-08-16T03:18:40.861Z,21.45
2022-08-16T03:20:35.057Z,21.23
2022-08-16T03:21:37.737Z,21.23
2022-08-16T03:23:35.717Z,21.37
2022-08-16T03:24:29.875Z,21.28
2022-08-16T03:26:23.285Z,21.29
2022-08-16T03:27:23.277Z,21.16
2022-08-16T03:29:17.410Z,21.03
2022-08-16T03:30:18.217Z,21.04
2022-08-16T03:32:11.130Z,21.03
2022-08-16T03:33:11.119Z,20.95
2022-08-16T03:35:05.250Z,20.95
2022-08-16T03:36:29.841Z,21.03
2022-08-16T03:38:02.860Z,20.86
2022-08-16T03:38:59.363Z,20.93
2022-08-16T03:40:53.159Z,20.77
2022-08-16T03:41:59.874Z,20.64
2022-08-16T03:43:51.120Z,20.52
2022-08-16T03:44:49.510Z,20.55
2022-08-16T03:46:47.959Z,20.46
2022-08-16T03:47:42.692Z,20.53
2022-08-16T03:49:37.413Z,20.56
2022-08-16T03:50:36.786Z,20.44
2022-08-16T03:52:31.382Z,20.63
2022-08-16T03:53:37.838Z,20.71
2022-08-16T03:55:24.600Z,20.71
2022-08-16T03:56:24.591Z,20.70
2022-08-16T03:58:18.688Z,20.73
2022-08-16T03:59:18.669Z,20.67
2022-08-16T04:01:12.804Z,20.55
2022-08-16T04:02:22.848Z,20.56
2022-08-16T04:04:06.871Z,20.33
2022-08-16T04:05:06.856Z,20.33
2022-08-16T04:07:02.938Z,20.39
2022-08-16T04:08:02.012Z,20.52
2022-08-16T04:09:57.131Z,20.48
2022-08-16T04:10:57.874Z,20.34
2022-08-16T04:12:54.997Z,20.37
2022-08-16T04:14:00.155Z,20.44
2022-08-16T04:15:46.605Z,20.37
2022-08-16T04:16:46.597Z,20.58
2022-08-16T04:18:41.753Z,20.61
2022-08-16T04:19:45.656Z,20.55
2022-08-16T04:21:35.857Z,20.60
2022-08-16T04:22:35.847Z,20.55
2022-08-16T04:24:30.038Z,20.52
2022-08-16T04:25:30.020Z,20.56
2022-08-16T04:27:24.511Z,20.49
2022-08-16T04:28:51.844Z,20.37
2022-08-16T04:30:32.172Z,20.34
2022-08-16T04:31:18.173Z,20.37
2022-08-16T04:33:12.276Z,20.42
2022-08-16T04:34:12.265Z,20.30
2022-08-16T04:36:06.449Z,20.30
2022-08-16T04:37:06.441Z,20.36
2022-08-16T04:39:00.613Z,20.37
2022-08-16T04:40:00.635Z,20.52
2022-08-16T04:41:56.921Z,20.52
2022-08-16T04:42:54.981Z,20.46
2022-08-16T04:44:54.669Z,20.19
2022-08-16T04:46:00.245Z,20.15
2022-08-16T04:47:42.941Z,20.08
2022-08-16T04:48:42.936Z,20.18
2022-08-16T04:50:37.903Z,20.26
2022-08-16T04:51:37.057Z,20.29
2022-08-16T04:53:31.142Z,20.32
2022-08-16T04:54:31.123Z,20.27
2022-08-16T04:56:25.247Z,20.27
2022-08-16T04:57:25.239Z,20.26
2022-08-16T04:59:19.342Z,20.19
2022-08-16T05:00:30.818Z,20.25
2022-08-16T05:02:41.120Z,20.37
2022-08-16T05:03:13.610Z,20.42
2022-08-16T05:05:07.306Z,20.50
2022-08-16T05:06:07.288Z,20.30
2022-08-16T05:08:01.437Z,20.32
2022-08-16T05:09:01.426Z,20.26
2022-08-16T05:11:00.026Z,20.33
2022-08-16T05:11:57.456Z,20.30
2022-08-16T05:13:51.777Z,20.34
2022-08-16T05:15:01.744Z,20.23
2022-08-16T05:16:45.416Z,20.17
2022-08-16T05:17:45.409Z,20.27
2022-08-16T05:19:39.633Z,20.23
2022-08-16T05:20:57.026Z,20.15
2022-08-16T05:22:33.757Z,20.18
2022-08-16T05:23:33.750Z,20.22
2022-08-16T05:25:40.739Z,20.36
2022-08-16T05:26:28.281Z,20.39
2022-08-16T05:28:23.126Z,20.52
2022-08-16T05:29:23.075Z,20.50
2022-08-16T05:31:16.838Z,20.60
2022-08-16T05:32:31.845Z,20.58
2022-08-16T05:34:19.429Z,20.58
2022-08-16T05:35:12.055Z,20.63
2022-08-16T05:37:07.225Z,20.67
2022-08-16T05:38:32.641Z,20.70
2022-08-16T05:40:06.068Z,20.82
2022-08-16T05:41:01.444Z,20.83
2022-08-16T05:42:56.565Z,20.79
2022-08-16T05:43:58.925Z,20.75
2022-08-16T05:45:51.673Z,20.85
2022-08-16T05:46:51.728Z,20.88
2022-08-16T05:48:45.769Z,20.60
2022-08-16T05:49:45.744Z,20.68
2022-08-16T05:51:41.521Z,20.70
2022-08-16T05:52:39.974Z,20.67
2022-08-16T05:54:34.004Z,20.75
2022-08-16T05:55:35.033Z,20.82
2022-08-16T05:57:28.176Z,20.95
2022-08-16T05:58:33.192Z,21.03
2022-08-16T06:00:23.301Z,21.05
2022-08-16T06:01:23.335Z,21.10
2022-08-16T06:03:17.469Z,21.22
2022-08-16T06:04:36.587Z,21.29
2022-08-16T06:06:11.572Z,21.28
2022-08-16T06:07:25.174Z,21.32
2022-08-16T06:09:05.812Z,21.22
2022-08-16T06:10:05.816Z,21.14
2022-08-16T06:11:59.942Z,21.28
2022-08-16T06:12:59.943Z,21.13
2022-08-16T06:14:54.092Z,21.22
2022-08-16T06:15:54.070Z,21.25
2022-08-16T06:17:48.230Z,21.25
2022-08-16T06:18:48.230Z,21.11
2022-08-16T06:20:55.024Z,21.11
2022-08-16T06:21:42.317Z,21.10
2022-08-16T06:23:36.422Z,20.97
2022-08-16T06:24:55.164Z,20.98
2022-08-16T06:26:36.922Z,21.14
2022-08-16T06:27:39.819Z,21.26
2022-08-16T06:29:24.639Z,21.35
2022-08-16T06:30:24.618Z,21.50
2022-08-16T06:32:27.688Z,21.44
2022-08-16T06:33:22.704Z,21.51
2022-08-16T06:35:14.029Z,21.58
2022-08-16T06:36:14.508Z,21.65
2022-08-16T06:38:32.496Z,21.84
2022-08-16T06:39:09.583Z,21.90
2022-08-16T06:41:04.368Z,22.13
2022-08-16T06:42:04.355Z,22.36
2022-08-16T06:43:58.495Z,22.83
2022-08-16T06:44:58.480Z,22.91
2022-08-16T06:46:52.570Z,23.44
2022-08-16T06:47:56.410Z,23.73
2022-08-16T06:49:52.921Z,23.96
2022-08-16T06:50:47.659Z,23.94
2022-08-16T06:53:00.008Z,24.13
2022-08-16T06:53:41.775Z,24.18
2022-08-16T06:55:38.399Z,24.47
2022-08-16T06:56:35.877Z,24.47
2022-08-16T06:58:31.452Z,24.84
2022-08-16T06:59:29.989Z,24.94
2022-08-16T07:01:43.298Z,24.85
2022-08-16T07:02:33.466Z,24.84
2022-08-16T07:04:32.669Z,24.71
2022-08-16T07:05:18.323Z,24.96
2022-08-16T07:07:12.518Z,24.91
2022-08-16T07:08:12.517Z,25.11
2022-08-16T07:10:08.862Z,25.22
2022-08-16T07:11:06.257Z,25.34
2022-08-16T07:13:03.274Z,25.40
2022-08-16T07:14:23.525Z,25.40
2022-08-16T07:15:55.626Z,25.37
2022-08-16T07:16:55.626Z,25.55
2022-08-16T07:19:01.347Z,25.71
2022-08-16T07:20:03.107Z,25.82
2022-08-16T07:21:46.271Z,25.86
2022-08-16T07:22:43.898Z,25.95
2022-08-16T07:24:45.989Z,25.93
2022-08-16T07:25:40.195Z,26.23
2022-08-16T07:27:33.617Z,26.52
2022-08-16T07:28:32.166Z,26.46
2022-08-16T07:30:45.139Z,26.38
2022-08-16T07:31:37.434Z,26.39
2022-08-16T07:33:52.734Z,26.45
2022-08-16T07:34:21.142Z,26.49
2022-08-16T07:36:22.026Z,26.89
2022-08-16T07:37:15.417Z,27.17
2022-08-16T07:39:09.609Z,27.27
2022-08-16T07:40:11.406Z,27.32
2022-08-16T07:42:03.703Z,27.58
2022-08-16T07:43:03.697Z,27.26
2022-08-16T07:44:57.938Z,27.69
2022-08-16T07:45:57.903Z,27.41
2022-08-16T07:47:51.696Z,27.23
2022-08-16T07:48:51.688Z,27.08
2022-08-16T07:50:56.494Z,27.07
2022-08-16T07:51:45.853Z,27.15
2022-08-16T07:53:43.351Z,27.05
2022-08-16T07:54:45.923Z,26.97
2022-08-16T07:56:37.137Z,26.80
2022-08-16T07:57:37.963Z,26.90
2022-08-16T07:59:42.947Z,26.75
2022-08-16T08:00:27.630Z,26.75
2022-08-16T08:02:21.401Z,26.73
2022-08-16T08:03:21.403Z,26.79
2022-08-16T08:05:15.164Z,26.97
2022-08-16T08:06:15.258Z,26.98
2022-08-16T08:08:11.521Z,27.04
2022-08-16T08:09:08.997Z,27.03
2022-08-16T08:11:09.212Z,27.07
2022-08-16T08:12:05.516Z,27.13
2022-08-16T08:14:00.796Z,27.27
2022-08-16T08:14:58.085Z,27.25
2022-08-16T08:16:52.189Z,27.26
2022-08-16T08:17:52.190Z,27.35
2022-08-16T08:19:53.601Z,27.22
2022-08-16T08:20:46.412Z,27.27
2022-08-16T08:22:40.728Z,27.58
2022-08-16T08:23:42.381Z,27.78
2022-08-16T08:25:54.430Z,27.47
2022-08-16T08:26:34.808Z,27.75
2022-08-16T08:28:29.127Z,27.72
2022-08-16T08:29:37.330Z,27.73
2022-08-16T08:31:22.885Z,27.75
2022-08-16T08:32:46.740Z,27.90
2022-08-16T08:34:16.679Z,27.97
2022-08-16T08:35:16.645Z,28.19
2022-08-16T08:37:11.617Z,28.35
2022-08-16T08:38:11.497Z,28.24
2022-08-16T08:40:05.895Z,28.15
2022-08-16T08:41:05.845Z,28.31
2022-08-16T08:43:00.820Z,28.25
2022-08-16T08:44:00.059Z,28.31
2022-08-16T08:45:54.193Z,28.43
2022-08-16T08:47:00.228Z,28.47
2022-08-16T08:48:59.174Z,28.38
2022-08-16T08:49:55.483Z,28.35
2022-08-16T08:51:42.443Z,28.30
2022-08-16T08:52:42.446Z,28.42
2022-08-16T08:54:36.576Z,28.61
2022-08-16T08:55:36.571Z,28.74
2022-08-16T08:57:30.761Z,28.89
2022-08-16T08:58:34.276Z,28.96
2022-08-16T09:00:27.044Z,29.27
2022-08-16T09:01:31.675Z,29.02
2022-08-16T09:03:19.769Z,28.96
2022-08-16T09:04:19.788Z,29.02
2022-08-16T09:06:14.179Z,29.10
2022-08-16T09:07:14.170Z,29.28
2022-08-16T09:09:08.337Z,29.39
2022-08-16T09:10:20.336Z,29.54
2022-08-16T09:12:05.987Z,29.86
2022-08-16T09:13:02.433Z,29.92
2022-08-16T09:14:56.623Z,30.26
2022-08-16T09:15:56.599Z,30.28
2022-08-16T09:17:53.660Z,30.35
2022-08-16T09:18:53.497Z,30.26
2022-08-16T09:20:59.582Z,30.02
2022-08-16T09:21:44.532Z,30.03
2022-08-16T09:23:38.680Z,30.15
2022-08-16T09:24:52.995Z,30.33
2022-08-16T09:26:45.954Z,30.62
2022-08-16T09:27:56.538Z,30.70
2022-08-16T09:29:45.247Z,30.83
2022-08-16T09:30:33.691Z,30.88
2022-08-16T09:32:28.529Z,30.90
2022-08-16T09:33:21.356Z,31.08
2022-08-16T09:35:14.755Z,31.08
2022-08-16T09:36:32.816Z,31.15
2022-08-16T09:38:09.760Z,31.15
2022-08-16T09:39:08.888Z,31.22
2022-08-16T09:41:03.079Z,31.32
2022-08-16T09:42:03.046Z,31.38
2022-08-16T09:44:02.269Z,31.24
2022-08-16T09:45:12.200Z,31.11
2022-08-16T09:46:57.525Z,31.45
2022-08-16T09:47:56.703Z,31.54
2022-08-16T09:49:51.011Z,31.78
2022-08-16T09:50:46.487Z,31.91
2022-08-16T09:52:44.460Z,32.11
2022-08-16T09:53:41.325Z,31.91
2022-08-16T09:55:44.238Z,31.99
2022-08-16T09:56:35.552Z,31.66
2022-08-16T09:58:41.654Z,31.95
2022-08-16T09:59:30.479Z,31.79
2022-08-16T10:01:23.494Z,31.76
2022-08-16T10:02:26.889Z,31.71
2022-08-16T10:04:31.675Z,31.61
2022-08-16T10:05:17.848Z,31.70
2022-08-16T10:07:15.914Z,31.81
2022-08-16T10:08:25.915Z,31.98
2022-08-16T10:10:11.177Z,32.21
2022-08-16T10:11:06.983Z,32.36
2022-08-16T10:13:01.238Z,32.58
2022-08-16T10:14:01.243Z,32.70
2022-08-16T10:15:55.947Z,32.82
2022-08-16T10:16:59.949Z,32.90
2022-08-16T10:19:00.764Z,32.83
2022-08-16T10:19:50.333Z,32.91
2022-08-16T10:21:43.946Z,32.90
2022-08-16T10:22:43.951Z,32.87
2022-08-16T10:24:38.201Z,33.12
2022-08-16T10:27:17.318Z,33.29
2022-08-16T10:27:46.023Z,33.01
2022-08-16T10:28:39.506Z,33.26
2022-08-16T10:30:28.617Z,33.84
2022-08-16T10:31:44.562Z,34.01
2022-08-16T10:33:21.523Z,33.98
2022-08-16T10:34:30.718Z,33.98
2022-08-16T10:36:39.437Z,33.44
2022-08-16T10:37:15.697Z,33.44
2022-08-16T10:39:10.508Z,33.66
2022-08-16T10:40:29.425Z,33.60
2022-08-16T10:42:04.671Z,33.82
2022-08-16T10:43:04.687Z,34.03
2022-08-16T10:44:58.848Z,33.30
2022-08-16T10:46:00.845Z,32.79
2022-08-16T10:48:02.791Z,33.03
2022-08-16T10:48:53.076Z,33.37
2022-08-16T10:50:47.302Z,33.82
2022-08-16T10:52:03.039Z,33.82
2022-08-16T10:53:41.461Z,34.13
2022-08-16T10:56:52.699Z,33.85
2022-08-16T10:57:36.567Z,33.88
2022-08-16T10:59:38.494Z,33.88
2022-08-16T11:00:30.365Z,33.98
2022-08-16T11:02:58.967Z,33.57
2022-08-16T11:03:43.178Z,33.45
2022-08-16T11:05:19.970Z,33.86
2022-08-16T11:06:21.580Z,33.97
2022-08-16T11:08:16.403Z,34.22
2022-08-16T11:09:25.262Z,34.30
2022-08-16T11:11:12.687Z,34.45
2022-08-16T11:12:13.854Z,34.53
2022-08-16T11:14:10.871Z,34.79
2022-08-16T11:15:18.224Z,34.70
2022-08-16T11:17:10.416Z,34.95
2022-08-16T11:20:51.386Z,34.91
2022-08-16T11:22:48.229Z,35.05
2022-08-16T11:23:57.538Z,35.09
2022-08-16T11:26:39.791Z,35.13
2022-08-16T11:29:35.001Z,34.83
2022-08-16T11:31:28.859Z,34.44
2022-08-16T11:32:31.759Z,34.03
2022-08-16T11:34:23.014Z,33.78
2022-08-16T11:35:43.408Z,33.76
2022-08-16T11:37:27.305Z,33.70
2022-08-16T11:38:47.089Z,33.69
2022-08-16T11:40:11.403Z,33.60
2022-08-16T11:41:11.347Z,33.41
2022-08-16T11:43:05.564Z,33.12
2022-08-16T11:44:05.570Z,33.20
2022-08-16T11:46:01.433Z,33.07
2022-08-16T11:46:59.814Z,33.09
2022-08-16T11:48:54.041Z,32.92
2022-08-16T11:49:54.050Z,32.90
2022-08-16T11:51:48.246Z,32.65
2022-08-16T11:52:48.237Z,32.55
2022-08-16T11:54:42.374Z,32.65
2022-08-16T11:55:44.016Z,32.63
2022-08-16T11:57:36.529Z,32.73
2022-08-16T11:58:36.550Z,32.75
2022-08-16T12:00:34.119Z,32.75
2022-08-16T12:01:44.595Z,32.70
2022-08-16T12:03:34.353Z,32.64
2022-08-16T12:04:24.567Z,32.60
2022-08-16T12:06:24.893Z,32.69
2022-08-16T12:07:18.680Z,32.69
2022-08-16T12:09:13.894Z,32.61
2022-08-16T12:10:13.893Z,32.31
2022-08-16T12:12:08.684Z,32.42
2022-08-16T12:13:10.328Z,32.42
2022-08-16T12:15:02.931Z,32.58
2022-08-16T12:16:02.919Z,32.39
2022-08-16T12:17:57.178Z,31.87
2022-08-16T12:18:57.182Z,32.05
2022-08-16T12:20:51.342Z,32.23
2022-08-16T12:21:58.803Z,31.95
2022-08-16T12:23:45.558Z,31.81
2022-08-16T12:24:45.549Z,31.90
2022-08-16T12:26:39.694Z,32.02
2022-08-16T12:27:39.689Z,32.08
2022-08-16T12:29:33.889Z,32.31
2022-08-16T12:30:38.679Z,32.31
2022-08-16T12:32:38.588Z,32.46
2022-08-16T12:33:28.038Z,32.50
2022-08-16T12:35:22.173Z,32.65
2022-08-16T12:36:22.168Z,32.75
2022-08-16T12:38:38.715Z,32.76
2022-08-16T12:39:16.333Z,32.58
2022-08-16T12:41:10.482Z,32.61
2022-08-16T12:42:10.477Z,32.69
2022-08-16T12:44:04.642Z,32.83
2022-08-16T12:45:04.636Z,32.90
2022-08-16T12:46:58.755Z,32.91
2022-08-16T12:48:31.317Z,32.88
2022-08-16T12:49:52.994Z,32.87
2022-08-16T12:50:52.991Z,32.85
2022-08-16T12:52:52.306Z,32.79
2022-08-16T12:53:47.173Z,32.90
2022-08-16T12:55:41.898Z,32.77
2022-08-16T12:56:41.325Z,32.64
2022-08-16T12:58:49.792Z,32.80
2022-08-16T12:59:35.539Z,32.75
2022-08-16T13:01:29.771Z,32.69
2022-08-16T13:02:33.681Z,32.77
2022-08-16T13:04:24.600Z,32.83
2022-08-16T13:05:24.043Z,32.77
2022-08-16T13:07:18.112Z,32.55
2022-08-16T13:08:18.112Z,32.68
2022-08-16T13:10:21.073Z,32.57
2022-08-16T13:11:12.031Z,32.33
2022-08-16T13:13:09.108Z,32.43
2022-08-16T13:14:08.773Z,32.36
2022-08-16T13:16:07.353Z,32.48
2022-08-16T13:17:02.912Z,32.46
2022-08-16T13:18:57.120Z,32.57
2022-08-16T13:20:12.561Z,32.54
2022-08-16T13:21:51.274Z,32.65
2022-08-16T13:22:51.280Z,32.75
2022-08-16T13:24:45.449Z,32.73
2022-08-16T13:25:45.434Z,32.80
2022-08-16T13:28:01.427Z,32.85
2022-08-16T13:28:39.723Z,32.88
2022-08-16T13:30:36.361Z,32.75
2022-08-16T13:31:34.476Z,32.58
2022-08-16T13:33:30.182Z,32.26
2022-08-16T13:34:28.563Z,32.02
2022-08-16T13:36:49.429Z,31.94
2022-08-16T13:37:22.662Z,31.98
2022-08-16T13:39:16.874Z,32.23
2022-08-16T13:40:20.023Z,32.11
2022-08-16T13:42:10.983Z,32.13
2022-08-16T13:43:11.408Z,31.94
2022-08-16T13:45:05.131Z,31.87
2022-08-16T13:46:05.157Z,31.91
2022-08-16T13:47:59.243Z,32.11
2022-08-16T13:48:59.234Z,32.32
2022-08-16T13:50:53.406Z,32.36
2022-08-16T13:51:53.406Z,32.53
2022-08-16T13:53:54.424Z,32.61
2022-08-16T13:54:47.564Z,32.61
2022-08-16T13:56:41.294Z,32.53
2022-08-16T13:58:34.494Z,32.57
2022-08-16T13:59:35.494Z,32.76
2022-08-16T14:00:35.483Z,32.76
2022-08-16T14:02:29.420Z,32.79
2022-08-16T14:03:29.411Z,32.75
2022-08-16T14:05:23.893Z,32.88
2022-08-16T14:06:23.882Z,32.83
2022-08-16T14:08:18.673Z,32.57
2022-08-16T14:09:20.124Z,32.51
2022-08-16T14:11:12.811Z,32.55
2022-08-16T14:12:17.732Z,32.53
2022-08-16T14:14:06.938Z,32.39
2022-08-16T14:15:06.929Z,32.23
2022-08-16T14:17:01.274Z,31.90
2022-08-16T14:18:14.944Z,32.01
2022-08-16T14:19:59.870Z,32.19
2022-08-16T14:20:54.940Z,32.20
2022-08-16T14:22:52.320Z,32.13
2022-08-16T14:23:49.066Z,32.24
2022-08-16T14:25:43.245Z,32.17
2022-08-16T14:26:43.247Z,32.16
2022-08-16T14:28:37.470Z,32.02
2022-08-16T14:29:38.305Z,31.98
2022-08-16T14:31:32.438Z,32.01
2022-08-16T14:32:33.246Z,31.86
2022-08-16T14:34:29.888Z,31.61
2022-08-16T14:35:36.267Z,31.45
2022-08-16T14:37:19.581Z,31.41
2022-08-16T14:38:19.581Z,31.44
2022-08-16T14:40:13.875Z,31.64
2022-08-16T14:41:13.826Z,31.70
2022-08-16T14:43:07.934Z,31.70
2022-08-16T14:44:07.929Z,31.59
2022-08-16T14:46:02.069Z,31.63
2022-08-16T14:47:02.070Z,31.74
2022-08-16T14:48:56.202Z,31.79
2022-08-16T14:49:56.183Z,31.82
2022-08-16T14:51:50.357Z,31.78
2022-08-16T14:52:57.586Z,31.76
2022-08-16T14:54:44.993Z,31.79
2022-08-16T14:55:44.590Z,31.79
2022-08-16T14:57:38.743Z,31.87
2022-08-16T14:58:38.741Z,31.87
2022-08-16T15:00:36.728Z,31.87
2022-08-16T15:01:59.549Z,31.91
2022-08-16T15:03:27.926Z,31.90
2022-08-16T15:04:40.389Z,31.86
2022-08-16T15:06:22.002Z,31.82
2022-08-16T15:07:22.111Z,31.78
2022-08-16T15:09:17.626Z,31.87
2022-08-16T15:10:23.939Z,31.82
2022-08-16T15:12:26.785Z,31.97
2022-08-16T15:13:11.693Z,31.94
2022-08-16T15:15:12.346Z,31.98
2022-08-16T15:16:05.882Z,32.01
2022-08-16T15:18:01.741Z,32.02
2022-08-16T15:19:00.980Z,32.08
2022-08-16T15:20:55.122Z,32.02
2022-08-16T15:21:55.125Z,32.04
2022-08-16T15:23:49.309Z,32.02
2022-08-16T15:24:49.232Z,32.01
2022-08-16T15:26:45.344Z,31.98
2022-08-16T15:27:44.213Z,31.98
2022-08-16T15:29:38.551Z,32.01
2022-08-16T15:30:56.805Z,31.94
2022-08-16T15:32:32.676Z,31.95
2022-08-16T15:33:32.687Z,32.02
2022-08-16T15:35:27.817Z,32.04
2022-08-16T15:36:28.118Z,32.08
2022-08-16T15:38:57.918Z,32.11
2022-08-16T15:39:30.234Z,32.06
2022-08-16T15:41:16.029Z,32.04
2022-08-16T15:42:28.609Z,31.90
2022-08-16T15:44:10.742Z,31.95
2022-08-16T15:45:11.397Z,31.91
2022-08-16T15:47:05.054Z,31.75
2022-08-16T15:48:05.567Z,31.79
2022-08-16T15:49:58.448Z,31.87
2022-08-16T15:50:58.436Z,31.74
2022-08-16T15:52:52.558Z,31.91
2022-08-16T15:54:16.583Z,31.90
2022-08-16T15:55:46.855Z,31.86
2022-08-16T15:56:46.847Z,31.81
2022-08-16T15:58:41.322Z,31.81
2022-08-16T15:59:49.339Z,31.82
2022-08-16T16:01:35.529Z,31.81
2022-08-16T16:02:35.451Z,31.74
2022-08-16T16:04:29.613Z,31.75
2022-08-16T16:05:29.604Z,31.74
2022-08-16T16:07:23.908Z,31.71
2022-08-16T16:08:24.703Z,31.74
2022-08-16T16:10:18.037Z,31.66
2022-08-16T16:11:18.026Z,31.63
2022-08-16T16:13:13.147Z,31.59
2022-08-16T16:14:13.165Z,31.61
2022-08-16T16:16:16.382Z,31.48
2022-08-16T16:17:07.333Z,31.45
2022-08-16T16:19:01.464Z,31.48
2022-08-16T16:20:01.461Z,31.52
2022-08-16T16:21:55.586Z,31.48
2022-08-16T16:22:55.582Z,31.41
2022-08-16T16:24:50.004Z,31.39
2022-08-16T16:25:50.209Z,31.37
2022-08-16T16:27:44.203Z,31.37
2022-08-16T16:29:08.575Z,31.29
2022-08-16T16:30:44.815Z,31.38
2022-08-16T16:31:37.971Z,31.45
2022-08-16T16:33:32.093Z,31.46
2022-08-16T16:34:33.445Z,31.45
2022-08-16T16:36:29.455Z,31.49
2022-08-16T16:37:26.205Z,31.42
2022-08-16T16:39:20.316Z,31.49
2022-08-16T16:40:23.824Z,31.44
2022-08-16T16:42:29.357Z,31.48
2022-08-16T16:43:14.409Z,31.45
2022-08-16T16:45:08.508Z,31.39
2022-08-16T16:46:32.837Z,31.38
2022-08-16T16:48:11.736Z,31.32
2022-08-16T16:49:03.939Z,31.29
2022-08-16T16:50:56.903Z,31.27
2022-08-16T16:52:06.659Z,31.29
2022-08-16T16:53:56.080Z,31.23
2022-08-16T16:54:51.162Z,31.15
2022-08-16T16:56:49.663Z,31.20
2022-08-16T16:57:45.372Z,31.22
2022-08-16T16:59:39.126Z,31.04
2022-08-16T17:00:39.118Z,31.04
2022-08-16T17:02:41.203Z,31.14
2022-08-16T17:03:33.472Z,31.01
2022-08-16T17:05:27.374Z,30.96
2022-08-16T17:06:27.370Z,31.01
2022-08-16T17:08:21.502Z,30.86
2022-08-16T17:09:21.496Z,30.73
2022-08-16T17:11:15.664Z,30.68
2022-08-16T17:12:24.528Z,30.52
2022-08-16T17:14:27.530Z,30.29
2022-08-16T17:15:10.757Z,30.14
2022-08-16T17:17:04.901Z,30.08
2022-08-16T17:18:04.993Z,30.11
2022-08-16T17:19:59.557Z,30.03
2022-08-16T17:20:59.557Z,30.03
2022-08-16T17:22:54.623Z,30.03
2022-08-16T17:23:58.995Z,30.08
2022-08-16T17:25:52.107Z,30.13
2022-08-16T17:26:48.925Z,30.15
2022-08-16T17:28:57.661Z,30.14
2022-08-16T17:29:42.614Z,30.13
2022-08-16T17:31:38.375Z,30.08
2022-08-16T17:32:47.369Z,30.10
2022-08-16T17:34:31.365Z,30.11
2022-08-16T17:35:33.651Z,30.14
2022-08-16T17:37:42.185Z,30.10
2022-08-16T17:38:38.590Z,30.07
2022-08-16T17:40:23.246Z,29.99
2022-08-16T17:41:19.665Z,29.95
2022-08-16T17:43:13.724Z,29.83
2022-08-16T17:44:13.717Z,29.86
2022-08-16T17:46:50.636Z,29.92
2022-08-16T17:47:08.864Z,29.83
2022-08-16T17:49:03.042Z,29.89
2022-08-16T17:50:03.033Z,29.89
2022-08-16T17:51:57.183Z,29.95
2022-08-16T17:52:57.181Z,29.87
2022-08-16T17:54:51.299Z,30.03
2022-08-16T17:55:51.289Z,30.00
2022-08-16T17:57:46.415Z,29.98
2022-08-16T17:58:45.398Z,30.02
2022-08-16T18:00:39.492Z,30.00
2022-08-16T18:01:39.556Z,29.92
2022-08-16T18:04:07.946Z,30.03
2022-08-16T18:04:48.521Z,29.98
2022-08-16T18:06:27.729Z,29.99
2022-08-16T18:07:27.710Z,29.95
2022-08-16T18:09:21.861Z,29.73
2022-08-16T18:10:33.070Z,29.66
2022-08-16T18:12:44.980Z,29.54
2022-08-16T18:13:15.983Z,29.49
2022-08-16T18:15:10.100Z,29.39
2022-08-16T18:16:10.153Z,29.34
2022-08-16T18:18:04.200Z,29.24
2022-08-16T18:19:04.184Z,29.13
2022-08-16T18:20:58.297Z,29.06
2022-08-16T18:21:59.729Z,28.96
2022-08-16T18:23:52.485Z,28.96
2022-08-16T18:24:52.458Z,28.79
2022-08-16T18:26:46.561Z,28.71
2022-08-16T18:27:46.584Z,28.68
2022-08-16T18:29:40.379Z,28.53
2022-08-16T18:30:40.371Z,28.53
2022-08-16T18:32:34.491Z,28.38
2022-08-16T18:33:43.215Z,28.35
2022-08-16T18:35:28.568Z,28.28
2022-08-16T18:36:28.571Z,28.13
2022-08-16T18:38:23.705Z,28.03
2022-08-16T18:39:23.683Z,28.10
2022-08-16T18:41:18.845Z,27.88
2022-08-16T18:42:18.842Z,27.93
2022-08-16T18:44:26.604Z,27.88
2022-08-16T18:45:12.927Z,27.78
2022-08-16T18:47:07.145Z,27.78
2022-08-16T18:48:07.128Z,27.64